sensor_id;sensor_type;location;lat;lon;timestamp;pressure;altitude;pressure_sealevel;temperature;humidity
71573;BME280;59408;51.032;9.410;2024-03-29T00:01:59;97215.09;;;5.69;85.33
71573;BME280;59408;51.032;9.410;2024-03-29T00:04:24;97211.00;;;5.60;86.24
71573;BME280;59408;51.032;9.410;2024-03-29T00:06:50;97205.59;;;5.44;87.06
71573;BME280;59408;51.032;9.410;2024-03-29T00:09:15;97196.88;;;5.35;87.59
71573;BME280;59408;51.032;9.410;2024-03-29T00:11:41;97201.84;;;5.33;88.07
71573;BME280;59408;51.032;9.410;2024-03-29T00:14:08;97197.66;;;5.20;88.75
71573;BME280;59408;51.032;9.410;2024-03-29T00:16:35;97204.19;;;5.03;89.80
71573;BME280;59408;51.032;9.410;2024-03-29T00:19:01;97192.88;;;4.85;91.30
71573;BME280;59408;51.032;9.410;2024-03-29T00:21:26;97192.59;;;4.75;92.65
71573;BME280;59408;51.032;9.410;2024-03-29T00:23:52;97190.91;;;4.82;92.64
71573;BME280;59408;51.032;9.410;2024-03-29T00:26:17;97195.94;;;4.84;93.27
71573;BME280;59408;51.032;9.410;2024-03-29T00:28:43;97183.66;;;4.86;92.00
71573;BME280;59408;51.032;9.410;2024-03-29T00:31:09;97174.28;;;4.96;91.78
71573;BME280;59408;51.032;9.410;2024-03-29T00:33:35;97161.06;;;4.91;91.88
71573;BME280;59408;51.032;9.410;2024-03-29T00:36:01;97163.97;;;4.86;91.77
71573;BME280;59408;51.032;9.410;2024-03-29T00:38:27;97166.66;;;4.86;91.56
71573;BME280;59408;51.032;9.410;2024-03-29T00:40:53;97159.63;;;4.81;91.42
71573;BME280;59408;51.032;9.410;2024-03-29T00:43:18;97158.56;;;4.86;92.90
71573;BME280;59408;51.032;9.410;2024-03-29T00:45:44;97167.50;;;4.74;92.95
71573;BME280;59408;51.032;9.410;2024-03-29T00:48:09;97168.03;;;4.64;94.09
71573;BME280;59408;51.032;9.410;2024-03-29T00:50:36;97167.94;;;4.60;92.82
71573;BME280;59408;51.032;9.410;2024-03-29T00:53:02;97167.41;;;4.55;93.30
71573;BME280;59408;51.032;9.410;2024-03-29T00:55:27;97153.97;;;4.43;93.96
71573;BME280;59408;51.032;9.410;2024-03-29T00:57:53;97159.41;;;4.31;95.74
71573;BME280;59408;51.032;9.410;2024-03-29T01:00:19;97149.88;;;4.21;97.01
71573;BME280;59408;51.032;9.410;2024-03-29T01:02:44;97146.47;;;4.08;98.60
71573;BME280;59408;51.032;9.410;2024-03-29T01:05:10;97143.13;;;3.99;99.55
71573;BME280;59408;51.032;9.410;2024-03-29T01:07:40;97142.34;;;3.86;100.00
71573;BME280;59408;51.032;9.410;2024-03-29T01:10:06;97167.44;;;3.75;100.00
71573;BME280;59408;51.032;9.410;2024-03-29T01:12:31;97154.19;;;3.70;100.00
71573;BME280;59408;51.032;9.410;2024-03-29T01:14:57;97163.53;;;3.60;100.00
71573;BME280;59408;51.032;9.410;2024-03-29T01:17:22;97156.69;;;3.50;100.00
71573;BME280;59408;51.032;9.410;2024-03-29T01:19:48;97144.34;;;3.37;100.00
71573;BME280;59408;51.032;9.410;2024-03-29T01:22:14;97143.66;;;3.40;100.00
71573;BME280;59408;51.032;9.410;2024-03-29T01:24:41;97154.44;;;3.40;100.00
71573;BME280;59408;51.032;9.410;2024-03-29T01:27:06;97157.59;;;3.42;100.00
71573;BME280;59408;51.032;9.410;2024-03-29T01:29:32;97145.56;;;3.40;100.00
71573;BME280;59408;51.032;9.410;2024-03-29T01:31:58;97147.41;;;3.36;100.00
71573;BME280;59408;51.032;9.410;2024-03-29T01:34:23;97146.94;;;3.34;100.00
71573;BME280;59408;51.032;9.410;2024-03-29T01:36:49;97141.22;;;3.35;100.00
71573;BME280;59408;51.032;9.410;2024-03-29T01:39:14;97130.44;;;3.35;100.00
71573;BME280;59408;51.032;9.410;2024-03-29T01:41:41;97139.06;;;3.41;100.00
71573;BME280;59408;51.032;9.410;2024-03-29T01:44:07;97124.69;;;3.49;100.00
71573;BME280;59408;51.032;9.410;2024-03-29T01:46:35;97127.84;;;3.51;100.00
71573;BME280;59408;51.032;9.410;2024-03-29T01:49:01;97125.91;;;3.51;100.00
71573;BME280;59408;51.032;9.410;2024-03-29T01:51:27;97118.28;;;3.54;100.00
71573;BME280;59408;51.032;9.410;2024-03-29T01:53:54;97134.00;;;3.64;100.00
71573;BME280;59408;51.032;9.410;2024-03-29T01:56:22;97132.16;;;3.80;100.00
71573;BME280;59408;51.032;9.410;2024-03-29T01:58:49;97133.25;;;3.91;100.00
71573;BME280;59408;51.032;9.410;2024-03-29T02:01:16;97127.03;;;4.03;99.40
71573;BME280;59408;51.032;9.410;2024-03-29T02:03:42;97132.72;;;4.13;98.75
71573;BME280;59408;51.032;9.410;2024-03-29T02:06:08;97140.22;;;4.20;98.47
71573;BME280;59408;51.032;9.410;2024-03-29T02:08:33;97162.25;;;4.22;98.21
71573;BME280;59408;51.032;9.410;2024-03-29T02:10:59;97165.84;;;4.26;97.75
71573;BME280;59408;51.032;9.410;2024-03-29T02:13:25;97162.69;;;4.24;97.99
71573;BME280;59408;51.032;9.410;2024-03-29T02:15:51;97158.44;;;4.23;97.20
71573;BME280;59408;51.032;9.410;2024-03-29T02:18:17;97160.78;;;4.24;98.27
71573;BME280;59408;51.032;9.410;2024-03-29T02:20:43;97160.69;;;4.21;97.89
71573;BME280;59408;51.032;9.410;2024-03-29T02:23:11;97140.22;;;4.20;99.11
71573;BME280;59408;51.032;9.410;2024-03-29T02:25:38;97140.78;;;4.25;97.65
71573;BME280;59408;51.032;9.410;2024-03-29T02:28:04;97135.81;;;4.28;98.37
71573;BME280;59408;51.032;9.410;2024-03-29T02:30:30;97137.91;;;4.34;97.37
71573;BME280;59408;51.032;9.410;2024-03-29T02:32:56;97131.06;;;4.37;97.54
71573;BME280;59408;51.032;9.410;2024-03-29T02:35:21;97119.81;;;4.35;97.29
71573;BME280;59408;51.032;9.410;2024-03-29T02:37:47;97109.53;;;4.40;96.92
71573;BME280;59408;51.032;9.410;2024-03-29T02:40:13;97099.09;;;4.39;97.86
71573;BME280;59408;51.032;9.410;2024-03-29T02:42:39;97112.78;;;4.46;95.67
71573;BME280;59408;51.032;9.410;2024-03-29T02:45:06;97117.47;;;4.49;95.19
71573;BME280;59408;51.032;9.410;2024-03-29T02:47:31;97098.34;;;4.54;95.32
71573;BME280;59408;51.032;9.410;2024-03-29T02:49:57;97101.13;;;4.57;95.10
71573;BME280;59408;51.032;9.410;2024-03-29T02:52:22;97086.25;;;4.63;94.58
71573;BME280;59408;51.032;9.410;2024-03-29T02:54:48;97087.38;;;4.62;94.08
71573;BME280;59408;51.032;9.410;2024-03-29T02:57:13;97076.75;;;4.70;92.73
71573;BME280;59408;51.032;9.410;2024-03-29T02:59:41;97057.56;;;4.75;93.08
71573;BME280;59408;51.032;9.410;2024-03-29T03:02:06;97086.31;;;4.83;93.25
71573;BME280;59408;51.032;9.410;2024-03-29T03:04:32;97067.50;;;4.86;92.98
71573;BME280;59408;51.032;9.410;2024-03-29T03:06:57;97072.13;;;4.86;92.39
71573;BME280;59408;51.032;9.410;2024-03-29T03:09:23;97082.41;;;4.80;92.93
71573;BME280;59408;51.032;9.410;2024-03-29T03:11:48;97058.72;;;4.74;94.31
71573;BME280;59408;51.032;9.410;2024-03-29T03:14:14;97053.22;;;4.70;94.90
71573;BME280;59408;51.032;9.410;2024-03-29T03:16:41;97043.13;;;4.67;95.24
71573;BME280;59408;51.032;9.410;2024-03-29T03:19:06;97037.72;;;4.67;94.77
71573;BME280;59408;51.032;9.410;2024-03-29T03:21:32;97045.81;;;4.67;95.81
71573;BME280;59408;51.032;9.410;2024-03-29T03:23:57;97065.06;;;4.65;96.74
71573;BME280;59408;51.032;9.410;2024-03-29T03:26:23;97061.25;;;4.67;96.67
71573;BME280;59408;51.032;9.410;2024-03-29T03:28:48;97041.91;;;4.64;96.76
71573;BME280;59408;51.032;9.410;2024-03-29T03:31:14;97041.91;;;4.64;96.81
71573;BME280;59408;51.032;9.410;2024-03-29T03:33:41;97063.16;;;4.66;94.49
71573;BME280;59408;51.032;9.410;2024-03-29T03:36:06;97067.97;;;4.73;94.85
71573;BME280;59408;51.032;9.410;2024-03-29T03:38:32;97076.22;;;4.80;93.87
71573;BME280;59408;51.032;9.410;2024-03-29T03:40:58;97071.63;;;4.80;96.16
71573;BME280;59408;51.032;9.410;2024-03-29T03:43:23;97082.41;;;4.80;95.86
71573;BME280;59408;51.032;9.410;2024-03-29T03:45:49;97082.06;;;4.82;96.68
71573;BME280;59408;51.032;9.410;2024-03-29T03:48:14;97099.47;;;4.84;96.82
71573;BME280;59408;51.032;9.410;2024-03-29T03:50:41;97090.69;;;4.87;97.88
71573;BME280;59408;51.032;9.410;2024-03-29T03:53:06;97099.34;;;4.93;94.22
71573;BME280;59408;51.032;9.410;2024-03-29T03:55:35;97109.78;;;4.94;94.43
71573;BME280;59408;51.032;9.410;2024-03-29T03:58:01;97110.75;;;5.02;93.96
71573;BME280;59408;51.032;9.410;2024-03-29T04:00:26;97111.47;;;4.99;97.82
71573;BME280;59408;51.032;9.410;2024-03-29T04:02:52;97108.56;;;4.92;100.00
71573;BME280;59408;51.032;9.410;2024-03-29T04:05:18;97113.44;;;4.86;99.47
71573;BME280;59408;51.032;9.410;2024-03-29T04:07:46;97128.50;;;4.87;100.00
71573;BME280;59408;51.032;9.410;2024-03-29T04:10:12;97127.13;;;4.93;97.49
71573;BME280;59408;51.032;9.410;2024-03-29T04:12:38;97115.13;;;5.07;96.68
71573;BME280;59408;51.032;9.410;2024-03-29T04:15:04;97107.63;;;5.16;95.80
71573;BME280;59408;51.032;9.410;2024-03-29T04:17:31;97114.84;;;5.27;92.82
71573;BME280;59408;51.032;9.410;2024-03-29T04:19:57;97107.75;;;5.38;92.71
71573;BME280;59408;51.032;9.410;2024-03-29T04:22:22;97102.38;;;5.58;91.67
71573;BME280;59408;51.032;9.410;2024-03-29T04:24:49;97105.56;;;5.79;86.84
71573;BME280;59408;51.032;9.410;2024-03-29T04:27:15;97104.22;;;5.89;86.18
71573;BME280;59408;51.032;9.410;2024-03-29T04:29:40;97105.84;;;5.93;87.10
71573;BME280;59408;51.032;9.410;2024-03-29T04:32:06;97102.78;;;5.95;87.65
71573;BME280;59408;51.032;9.410;2024-03-29T04:34:32;97094.53;;;5.88;91.11
71573;BME280;59408;51.032;9.410;2024-03-29T04:36:57;97105.19;;;5.81;90.71
71573;BME280;59408;51.032;9.410;2024-03-29T04:39:22;97107.13;;;5.80;91.88
71573;BME280;59408;51.032;9.410;2024-03-29T04:41:49;97117.38;;;5.90;90.52
71573;BME280;59408;51.032;9.410;2024-03-29T04:44:23;97126.91;;;5.84;91.90
71573;BME280;59408;51.032;9.410;2024-03-29T04:46:49;97131.47;;;5.80;95.68
71573;BME280;59408;51.032;9.410;2024-03-29T04:49:15;97139.06;;;5.74;95.80
71573;BME280;59408;51.032;9.410;2024-03-29T04:51:40;97137.44;;;5.70;97.14
71573;BME280;59408;51.032;9.410;2024-03-29T04:54:05;97141.13;;;5.62;100.00
71573;BME280;59408;51.032;9.410;2024-03-29T04:56:31;97147.06;;;5.52;100.00
71573;BME280;59408;51.032;9.410;2024-03-29T04:58:58;97140.28;;;5.42;100.00
71573;BME280;59408;51.032;9.410;2024-03-29T05:01:23;97135.91;;;5.37;100.00
71573;BME280;59408;51.032;9.410;2024-03-29T05:03:49;97148.91;;;5.32;100.00
71573;BME280;59408;51.032;9.410;2024-03-29T05:06:14;97140.22;;;5.23;100.00
71573;BME280;59408;51.032;9.410;2024-03-29T05:08:40;97130.81;;;5.17;100.00
71573;BME280;59408;51.032;9.410;2024-03-29T05:11:05;97122.16;;;5.11;100.00
71573;BME280;59408;51.032;9.410;2024-03-29T05:13:31;97125.47;;;5.05;100.00
71573;BME280;59408;51.032;9.410;2024-03-29T05:15:58;97116.78;;;4.95;100.00
71573;BME280;59408;51.032;9.410;2024-03-29T05:18:23;97112.31;;;4.87;100.00
71573;BME280;59408;51.032;9.410;2024-03-29T05:20:49;97097.06;;;4.79;100.00
71573;BME280;59408;51.032;9.410;2024-03-29T05:23:14;97099.22;;;4.74;100.00
71573;BME280;59408;51.032;9.410;2024-03-29T05:25:40;97083.56;;;4.63;100.00
71573;BME280;59408;51.032;9.410;2024-03-29T05:28:05;97073.78;;;4.59;100.00
71573;BME280;59408;51.032;9.410;2024-03-29T05:30:31;97073.69;;;4.55;100.00
71573;BME280;59408;51.032;9.410;2024-03-29T05:32:58;97075.19;;;4.53;100.00
71573;BME280;59408;51.032;9.410;2024-03-29T05:35:23;97072.72;;;4.48;100.00
71573;BME280;59408;51.032;9.410;2024-03-29T05:37:49;97071.59;;;4.49;100.00
71573;BME280;59408;51.032;9.410;2024-03-29T05:40:14;97059.31;;;4.51;100.00
71573;BME280;59408;51.032;9.410;2024-03-29T05:42:40;97053.13;;;4.51;100.00
71573;BME280;59408;51.032;9.410;2024-03-29T05:45:22;97052.00;;;4.52;100.00
71573;BME280;59408;51.032;9.410;2024-03-29T05:47:48;97064.72;;;4.51;100.00
71573;BME280;59408;51.032;9.410;2024-03-29T05:50:15;97067.94;;;4.57;100.00
71573;BME280;59408;51.032;9.410;2024-03-29T05:52:40;97064.91;;;4.58;100.00
71573;BME280;59408;51.032;9.410;2024-03-29T05:55:06;97060.72;;;4.61;100.00
71573;BME280;59408;51.032;9.410;2024-03-29T05:57:32;97070.41;;;4.62;100.00
71573;BME280;59408;51.032;9.410;2024-03-29T05:59:58;97069.69;;;4.65;100.00
71573;BME280;59408;51.032;9.410;2024-03-29T06:02:23;97075.53;;;4.67;100.00
71573;BME280;59408;51.032;9.410;2024-03-29T06:04:49;97084.84;;;4.70;100.00
71573;BME280;59408;51.032;9.410;2024-03-29T06:07:15;97091.47;;;4.72;100.00
71573;BME280;59408;51.032;9.410;2024-03-29T06:09:41;97094.97;;;4.73;100.00
71573;BME280;59408;51.032;9.410;2024-03-29T06:12:07;97093.91;;;4.77;100.00
71573;BME280;59408;51.032;9.410;2024-03-29T06:14:32;97093.47;;;4.75;100.00
71573;BME280;59408;51.032;9.410;2024-03-29T06:16:58;97100.19;;;4.81;100.00
71573;BME280;59408;51.032;9.410;2024-03-29T06:19:23;97089.81;;;4.83;100.00
71573;BME280;59408;51.032;9.410;2024-03-29T06:21:49;97065.28;;;4.88;100.00
71573;BME280;59408;51.032;9.410;2024-03-29T06:24:15;97079.47;;;5.01;100.00
71573;BME280;59408;51.032;9.410;2024-03-29T06:26:41;97078.75;;;5.04;100.00
71573;BME280;59408;51.032;9.410;2024-03-29T06:29:07;97081.63;;;5.11;100.00
71573;BME280;59408;51.032;9.410;2024-03-29T06:31:33;97087.22;;;5.18;100.00
71573;BME280;59408;51.032;9.410;2024-03-29T06:33:58;97082.31;;;5.24;100.00
71573;BME280;59408;51.032;9.410;2024-03-29T06:36:24;97088.94;;;5.26;100.00
71573;BME280;59408;51.032;9.410;2024-03-29T06:38:49;97098.69;;;5.31;100.00
71573;BME280;59408;51.032;9.410;2024-03-29T06:41:16;97092.59;;;5.34;100.00
71573;BME280;59408;51.032;9.410;2024-03-29T06:43:42;97083.34;;;5.35;100.00
71573;BME280;59408;51.032;9.410;2024-03-29T06:46:08;97081.84;;;5.37;100.00
71573;BME280;59408;51.032;9.410;2024-03-29T06:48:33;97083.06;;;5.40;100.00
71573;BME280;59408;51.032;9.410;2024-03-29T06:50:59;97092.41;;;5.43;100.00
71573;BME280;59408;51.032;9.410;2024-03-29T06:53:24;97084.44;;;5.50;100.00
71573;BME280;59408;51.032;9.410;2024-03-29T06:55:50;97089.28;;;5.60;100.00
71573;BME280;59408;51.032;9.410;2024-03-29T06:58:17;97095.56;;;5.64;100.00
71573;BME280;59408;51.032;9.410;2024-03-29T07:00:43;97073.34;;;5.74;100.00
71573;BME280;59408;51.032;9.410;2024-03-29T07:03:10;97083.03;;;5.75;100.00
71573;BME280;59408;51.032;9.410;2024-03-29T07:05:36;97075.88;;;5.83;100.00
71573;BME280;59408;51.032;9.410;2024-03-29T07:08:01;97070.59;;;5.90;100.00
71573;BME280;59408;51.032;9.410;2024-03-29T07:10:27;97071.09;;;5.95;100.00
71573;BME280;59408;51.032;9.410;2024-03-29T07:12:53;97066.47;;;5.96;100.00
71573;BME280;59408;51.032;9.410;2024-03-29T07:15:19;97043.31;;;5.98;100.00
71573;BME280;59408;51.032;9.410;2024-03-29T07:17:45;97062.31;;;6.02;100.00
71573;BME280;59408;51.032;9.410;2024-03-29T07:20:11;97065.03;;;6.02;100.00
71573;BME280;59408;51.032;9.410;2024-03-29T07:22:36;97077.38;;;5.99;100.00
71573;BME280;59408;51.032;9.410;2024-03-29T07:25:02;97071.59;;;6.01;100.00
71573;BME280;59408;51.032;9.410;2024-03-29T07:27:27;97083.69;;;6.07;100.00
71573;BME280;59408;51.032;9.410;2024-03-29T07:29:53;97071.88;;;6.15;100.00
71573;BME280;59408;51.032;9.410;2024-03-29T07:32:20;97076.56;;;6.18;100.00
71573;BME280;59408;51.032;9.410;2024-03-29T07:34:45;97079.28;;;6.18;100.00
71573;BME280;59408;51.032;9.410;2024-03-29T07:37:11;97054.97;;;6.22;100.00
71573;BME280;59408;51.032;9.410;2024-03-29T07:39:36;97080.13;;;6.22;100.00
71573;BME280;59408;51.032;9.410;2024-03-29T07:42:02;97085.88;;;6.21;100.00
71573;BME280;59408;51.032;9.410;2024-03-29T07:44:27;97097.28;;;6.30;100.00
71573;BME280;59408;51.032;9.410;2024-03-29T07:46:53;97101.28;;;6.36;100.00
71573;BME280;59408;51.032;9.410;2024-03-29T07:49:20;97102.25;;;6.47;100.00
71573;BME280;59408;51.032;9.410;2024-03-29T07:51:45;97105.03;;;6.50;100.00
71573;BME280;59408;51.032;9.410;2024-03-29T07:54:11;97119.47;;;6.58;100.00
71573;BME280;59408;51.032;9.410;2024-03-29T07:56:36;97110.56;;;6.58;100.00
71573;BME280;59408;51.032;9.410;2024-03-29T07:59:02;97121.13;;;6.63;100.00
71573;BME280;59408;51.032;9.410;2024-03-29T08:01:27;97111.19;;;6.70;100.00
71573;BME280;59408;51.032;9.410;2024-03-29T08:03:53;97116.72;;;6.77;100.00
71573;BME280;59408;51.032;9.410;2024-03-29T08:06:20;97113.72;;;6.82;100.00
71573;BME280;59408;51.032;9.410;2024-03-29T08:08:46;97113.06;;;6.89;100.00
71573;BME280;59408;51.032;9.410;2024-03-29T08:11:11;97125.22;;;6.99;100.00
71573;BME280;59408;51.032;9.410;2024-03-29T08:13:38;97131.63;;;7.10;100.00
71573;BME280;59408;51.032;9.410;2024-03-29T08:16:04;97123.16;;;7.15;100.00
71573;BME280;59408;51.032;9.410;2024-03-29T08:18:31;97119.00;;;7.21;100.00
71573;BME280;59408;51.032;9.410;2024-03-29T08:20:56;97110.50;;;7.22;100.00
71573;BME280;59408;51.032;9.410;2024-03-29T08:23:23;97125.97;;;7.22;100.00
71573;BME280;59408;51.032;9.410;2024-03-29T08:25:49;97123.78;;;7.27;100.00
71573;BME280;59408;51.032;9.410;2024-03-29T08:28:15;97121.44;;;7.30;100.00
71573;BME280;59408;51.032;9.410;2024-03-29T08:30:40;97120.88;;;7.40;100.00
71573;BME280;59408;51.032;9.410;2024-03-29T08:33:06;97117.84;;;7.45;100.00
71573;BME280;59408;51.032;9.410;2024-03-29T08:35:32;97124.16;;;7.52;100.00
71573;BME280;59408;51.032;9.410;2024-03-29T08:37:58;97128.09;;;7.55;100.00
71573;BME280;59408;51.032;9.410;2024-03-29T08:40:26;97120.72;;;7.55;100.00
71573;BME280;59408;51.032;9.410;2024-03-29T08:42:52;97122.66;;;7.55;100.00
71573;BME280;59408;51.032;9.410;2024-03-29T08:45:18;97124.16;;;7.52;100.00
71573;BME280;59408;51.032;9.410;2024-03-29T08:47:43;97115.69;;;7.57;100.00
71573;BME280;59408;51.032;9.410;2024-03-29T08:50:09;97123.97;;;7.65;100.00
71573;BME280;59408;51.032;9.410;2024-03-29T08:52:34;97118.56;;;7.68;100.00
71573;BME280;59408;51.032;9.410;2024-03-29T08:55:00;97116.84;;;7.83;100.00
71573;BME280;59408;51.032;9.410;2024-03-29T08:57:27;97126.22;;;7.89;100.00
71573;BME280;59408;51.032;9.410;2024-03-29T08:59:52;97121.88;;;7.84;100.00
71573;BME280;59408;51.032;9.410;2024-03-29T09:02:18;97130.44;;;7.86;100.00
71573;BME280;59408;51.032;9.410;2024-03-29T09:04:43;97124.25;;;7.86;100.00
71573;BME280;59408;51.032;9.410;2024-03-29T09:07:09;97139.00;;;7.88;100.00
71573;BME280;59408;51.032;9.410;2024-03-29T09:09:34;97138.94;;;7.81;100.00
71573;BME280;59408;51.032;9.410;2024-03-29T09:12:00;97140.50;;;7.82;100.00
71573;BME280;59408;51.032;9.410;2024-03-29T09:14:27;97145.22;;;7.89;100.00
71573;BME280;59408;51.032;9.410;2024-03-29T09:16:52;97149.44;;;7.86;100.00
71573;BME280;59408;51.032;9.410;2024-03-29T09:19:18;97154.50;;;7.88;100.00
71573;BME280;59408;51.032;9.410;2024-03-29T09:21:43;97151.88;;;7.91;100.00
71573;BME280;59408;51.032;9.410;2024-03-29T09:24:09;97147.25;;;7.95;100.00
71573;BME280;59408;51.032;9.410;2024-03-29T09:26:34;97148.03;;;7.96;100.00
71573;BME280;59408;51.032;9.410;2024-03-29T09:29:00;97149.25;;;7.98;100.00
71573;BME280;59408;51.032;9.410;2024-03-29T09:31:26;97159.69;;;7.96;100.00
71573;BME280;59408;51.032;9.410;2024-03-29T09:33:52;97162.47;;;8.04;100.00
71573;BME280;59408;51.032;9.410;2024-03-29T09:36:20;97162.84;;;8.02;100.00
71573;BME280;59408;51.032;9.410;2024-03-29T09:38:46;97168.34;;;8.06;100.00
71573;BME280;59408;51.032;9.410;2024-03-29T09:41:14;97166.03;;;8.08;100.00
71573;BME280;59408;51.032;9.410;2024-03-29T09:43:41;97172.41;;;8.19;100.00
71573;BME280;59408;51.032;9.410;2024-03-29T09:46:08;97171.97;;;8.17;100.00
71573;BME280;59408;51.032;9.410;2024-03-29T09:48:37;97181.13;;;8.35;100.00
71573;BME280;59408;51.032;9.410;2024-03-29T09:51:03;97176.22;;;8.48;100.00
71573;BME280;59408;51.032;9.410;2024-03-29T09:53:29;97178.25;;;8.54;100.00
71573;BME280;59408;51.032;9.410;2024-03-29T09:55:56;97183.59;;;8.47;100.00
71573;BME280;59408;51.032;9.410;2024-03-29T09:58:21;97180.97;;;8.54;100.00
71573;BME280;59408;51.032;9.410;2024-03-29T10:00:47;97181.13;;;8.68;100.00
71573;BME280;59408;51.032;9.410;2024-03-29T10:03:13;97163.00;;;8.80;100.00
71573;BME280;59408;51.032;9.410;2024-03-29T10:05:40;97185.56;;;8.84;100.00
71573;BME280;59408;51.032;9.410;2024-03-29T10:08:06;97183.72;;;8.95;100.00
71573;BME280;59408;51.032;9.410;2024-03-29T10:10:32;97172.91;;;9.02;100.00
71573;BME280;59408;51.032;9.410;2024-03-29T10:12:58;97177.03;;;9.22;100.00
71573;BME280;59408;51.032;9.410;2024-03-29T10:15:24;97184.81;;;9.24;100.00
71573;BME280;59408;51.032;9.410;2024-03-29T10:17:49;97174.03;;;9.34;100.00
71573;BME280;59408;51.032;9.410;2024-03-29T10:20:15;97173.41;;;9.52;100.00
71573;BME280;59408;51.032;9.410;2024-03-29T10:22:43;97164.63;;;9.76;100.00
71573;BME280;59408;51.032;9.410;2024-03-29T10:25:09;97166.63;;;9.86;100.00
71573;BME280;59408;51.032;9.410;2024-03-29T10:27:35;97158.31;;;10.27;100.00
71573;BME280;59408;51.032;9.410;2024-03-29T10:30:00;97167.75;;;10.54;100.00
71573;BME280;59408;51.032;9.410;2024-03-29T10:32:26;97158.84;;;10.68;100.00
71573;BME280;59408;51.032;9.410;2024-03-29T10:34:51;97162.06;;;10.91;100.00
71573;BME280;59408;51.032;9.410;2024-03-29T10:37:17;97163.97;;;10.76;100.00
71573;BME280;59408;51.032;9.410;2024-03-29T10:39:44;97149.88;;;10.67;100.00
71573;BME280;59408;51.032;9.410;2024-03-29T10:42:10;97169.03;;;10.78;100.00
71573;BME280;59408;51.032;9.410;2024-03-29T10:44:37;97170.94;;;10.74;100.00
71573;BME280;59408;51.032;9.410;2024-03-29T10:47:03;97178.38;;;10.84;98.21
71573;BME280;59408;51.032;9.410;2024-03-29T10:49:29;97175.25;;;10.78;95.91
71573;BME280;59408;51.032;9.410;2024-03-29T10:51:59;97164.28;;;10.68;96.07
71573;BME280;59408;51.032;9.410;2024-03-29T10:54:25;97156.50;;;10.62;97.49
71573;BME280;59408;51.032;9.410;2024-03-29T10:56:57;97168.56;;;10.61;97.13
71573;BME280;59408;51.032;9.410;2024-03-29T10:59:28;97169.75;;;10.64;95.27
71573;BME280;59408;51.032;9.410;2024-03-29T11:01:59;97167.50;;;10.80;95.20
71573;BME280;59408;51.032;9.410;2024-03-29T11:04:29;97172.19;;;10.94;93.52
71573;BME280;59408;51.032;9.410;2024-03-29T11:06:58;97158.91;;;10.78;91.51
71573;BME280;59408;51.032;9.410;2024-03-29T11:09:28;97164.00;;;10.94;91.36
71573;BME280;59408;51.032;9.410;2024-03-29T11:11:56;97174.84;;;10.73;92.51
71573;BME280;59408;51.032;9.410;2024-03-29T11:14:26;97161.53;;;10.60;92.37
71573;BME280;59408;51.032;9.410;2024-03-29T11:16:54;97167.38;;;10.59;93.51
71573;BME280;59408;51.032;9.410;2024-03-29T11:19:20;97149.84;;;10.56;92.85
71573;BME280;59408;51.032;9.410;2024-03-29T11:21:46;97147.56;;;10.73;92.10
71573;BME280;59408;51.032;9.410;2024-03-29T11:24:12;97153.00;;;10.69;93.61
71573;BME280;59408;51.032;9.410;2024-03-29T11:26:37;97157.72;;;10.76;95.11
71573;BME280;59408;51.032;9.410;2024-03-29T11:29:04;97151.88;;;10.77;94.30
71573;BME280;59408;51.032;9.410;2024-03-29T11:31:29;97158.91;;;10.78;94.53
71573;BME280;59408;51.032;9.410;2024-03-29T11:33:57;97160.00;;;10.63;93.13
71573;BME280;59408;51.032;9.410;2024-03-29T11:36:23;97151.81;;;10.63;93.41
71573;BME280;59408;51.032;9.410;2024-03-29T11:38:51;97169.09;;;11.06;92.67
71573;BME280;59408;51.032;9.410;2024-03-29T11:41:18;97177.72;;;11.65;91.84
71573;BME280;59408;51.032;9.410;2024-03-29T11:43:44;97173.41;;;11.78;91.46
71573;BME280;59408;51.032;9.410;2024-03-29T11:46:12;97158.13;;;12.05;90.39
71573;BME280;59408;51.032;9.410;2024-03-29T11:48:38;97183.97;;;11.65;90.41
71573;BME280;59408;51.032;9.410;2024-03-29T11:51:04;97170.66;;;11.92;91.21
71573;BME280;59408;51.032;9.410;2024-03-29T11:53:31;97171.75;;;12.30;89.49
71573;BME280;59408;51.032;9.410;2024-03-29T11:55:57;97170.50;;;12.49;88.78
71573;BME280;59408;51.032;9.410;2024-03-29T11:58:23;97172.97;;;12.19;87.87
71573;BME280;59408;51.032;9.410;2024-03-29T12:00:49;97182.25;;;12.42;87.74
71573;BME280;59408;51.032;9.410;2024-03-29T12:03:16;97172.50;;;12.41;89.92
71573;BME280;59408;51.032;9.410;2024-03-29T12:05:42;97181.28;;;12.84;92.59
71573;BME280;59408;51.032;9.410;2024-03-29T12:08:09;97178.50;;;12.95;89.59
71573;BME280;59408;51.032;9.410;2024-03-29T12:10:35;97184.03;;;12.88;86.87
71573;BME280;59408;51.032;9.410;2024-03-29T12:13:00;97173.97;;;12.64;87.54
71573;BME280;59408;51.032;9.410;2024-03-29T12:15:27;97183.88;;;12.26;92.18
71573;BME280;59408;51.032;9.410;2024-03-29T12:17:54;97202.22;;;12.22;90.56
71573;BME280;59408;51.032;9.410;2024-03-29T12:20:21;97222.16;;;12.08;92.98
71573;BME280;59408;51.032;9.410;2024-03-29T12:22:46;97235.84;;;11.87;93.74
71573;BME280;59408;51.032;9.410;2024-03-29T12:25:12;97247.53;;;11.45;94.46
71573;BME280;59408;51.032;9.410;2024-03-29T12:27:38;97268.16;;;11.28;98.32
71573;BME280;59408;51.032;9.410;2024-03-29T12:30:04;97273.53;;;11.03;99.84
71573;BME280;59408;51.032;9.410;2024-03-29T12:32:30;97279.63;;;10.72;100.00
71573;BME280;59408;51.032;9.410;2024-03-29T12:35:07;97278.00;;;10.60;100.00
71573;BME280;59408;51.032;9.410;2024-03-29T12:37:34;97260.38;;;10.43;100.00
71573;BME280;59408;51.032;9.410;2024-03-29T12:39:59;97257.25;;;10.41;100.00
71573;BME280;59408;51.032;9.410;2024-03-29T12:42:25;97254.88;;;10.33;100.00
71573;BME280;59408;51.032;9.410;2024-03-29T12:44:50;97251.28;;;10.18;100.00
71573;BME280;59408;51.032;9.410;2024-03-29T12:47:16;97233.34;;;10.10;100.00
71573;BME280;59408;51.032;9.410;2024-03-29T12:49:41;97237.88;;;9.95;100.00
71573;BME280;59408;51.032;9.410;2024-03-29T12:52:07;97232.78;;;9.86;100.00
71573;BME280;59408;51.032;9.410;2024-03-29T12:54:34;97244.34;;;9.73;100.00
71573;BME280;59408;51.032;9.410;2024-03-29T12:56:59;97257.19;;;9.76;100.00